Terminal Aerodrome Forecast
Issued by NWS

Home | Current Version | Previous Version | Text Only | Print | Product List | Glossary On
Versions: 1 2 3 4 5 6 7 8 9 10 11 12 13 14 15
922
FTUS44 KBMX 221921 AAA
TAFTCL
TAF AMD
KTCL 221921Z 2219/2318 14008KT P6SM -RA SCT025 OVC050
     FM230300 15007KT 5SM -RA VCTS OVC025CB
     FM230800 23007KT 5SM -RA VCTS OVC008CB
     FM231100 28008KT P6SM OVC008=

USA.gov is the U.S. government's official web portal to all federal, state and local government web resources and services.